createdAt,value
2018-02-27T00:01:55.477Z,7.50
2018-02-27T00:04:22.945Z,6.53
2018-02-27T00:06:50.401Z,7.67
2018-02-27T00:09:17.878Z,7.60
2018-02-27T00:11:46.102Z,7.50
2018-02-27T00:14:13.567Z,7.77
2018-02-27T00:16:41.029Z,7.70
2018-02-27T00:19:08.486Z,7.17
2018-02-27T00:21:35.945Z,6.37
2018-02-27T00:24:03.401Z,7.97
2018-02-27T00:26:30.862Z,7.83
2018-02-27T00:28:58.317Z,7.70
2018-02-27T00:31:25.782Z,7.47
2018-02-27T00:33:53.242Z,7.03
2018-02-27T00:36:20.706Z,7.60
2018-02-27T00:38:48.166Z,7.03
2018-02-27T00:41:15.643Z,6.90
2018-02-27T00:43:43.861Z,7.00
2018-02-27T00:46:11.321Z,7.70
2018-02-27T00:48:38.769Z,7.50
2018-02-27T00:51:06.234Z,7.60
2018-02-27T00:53:33.689Z,7.40
2018-02-27T00:56:01.154Z,8.97
2018-02-27T00:58:28.607Z,8.07
2018-02-27T01:00:56.065Z,7.30
2018-02-27T01:03:23.514Z,7.80
2018-02-27T01:05:50.982Z,7.70
2018-02-27T01:08:18.438Z,7.50
2018-02-27T01:10:45.901Z,8.30
2018-02-27T01:13:13.392Z,7.60
2018-02-27T01:15:40.815Z,7.90
2018-02-27T01:18:08.282Z,8.70
2018-02-27T01:20:35.738Z,8.47
2018-02-27T01:23:03.200Z,7.70
2018-02-27T01:25:30.659Z,8.10
2018-02-27T01:27:58.128Z,7.30
2018-02-27T01:30:26.359Z,8.10
2018-02-27T01:32:53.822Z,9.50
2018-02-27T01:35:21.284Z,9.80
2018-02-27T01:37:48.747Z,8.40
2018-02-27T01:40:16.202Z,9.20
2018-02-27T01:42:43.662Z,7.20
2018-02-27T01:45:11.121Z,8.53
2018-02-27T01:47:38.590Z,8.10
2018-02-27T01:50:06.063Z,7.67
2018-02-27T01:52:34.289Z,8.03
2018-02-27T01:55:01.745Z,8.10
2018-02-27T01:57:29.201Z,7.90
2018-02-27T01:59:56.659Z,8.43
2018-02-27T02:02:24.122Z,7.40
2018-02-27T02:04:51.582Z,9.23
2018-02-27T02:07:19.058Z,8.47
2018-02-27T02:09:46.517Z,8.10
2018-02-27T02:12:13.977Z,7.80
2018-02-27T02:14:41.441Z,8.50
2018-02-27T02:17:09.665Z,9.33
2018-02-27T02:19:37.138Z,7.67
2018-02-27T02:22:04.590Z,8.40
2018-02-27T02:24:32.075Z,8.53
2018-02-27T02:26:59.532Z,9.30
2018-02-27T02:29:26.993Z,8.13
2018-02-27T02:31:54.455Z,9.67
2018-02-27T02:34:21.911Z,8.77
2018-02-27T02:36:49.363Z,8.20
2018-02-27T02:39:16.834Z,9.80
2018-02-27T02:41:45.058Z,8.73
2018-02-27T02:44:12.527Z,7.87
2018-02-27T02:46:39.989Z,9.27
2018-02-27T02:49:07.458Z,9.27
2018-02-27T02:51:34.926Z,8.73
2018-02-27T02:54:02.409Z,8.90
2018-02-27T02:56:29.870Z,9.37
2018-02-27T02:58:57.338Z,9.53
2018-02-27T03:01:24.790Z,8.70
2018-02-27T03:03:52.258Z,8.43
2018-02-27T03:06:19.720Z,8.97
2018-02-27T03:08:47.193Z,8.80
2018-02-27T03:11:14.658Z,8.17
2018-02-27T03:13:42.125Z,8.97
2018-02-27T03:16:09.583Z,8.87
2018-02-27T03:18:37.042Z,8.23
2018-02-27T03:21:04.497Z,9.80
2018-02-27T03:23:31.972Z,9.93
2018-02-27T03:26:00.200Z,7.80
2018-02-27T03:28:27.673Z,8.77
2018-02-27T03:30:55.130Z,9.00
2018-02-27T03:33:22.590Z,9.27
2018-02-27T03:35:50.054Z,9.73
2018-02-27T03:38:17.522Z,10.40
2018-02-27T03:40:45.772Z,8.40
2018-02-27T03:43:13.222Z,8.63
2018-02-27T03:45:40.689Z,8.77
2018-02-27T03:48:08.150Z,8.13
2018-02-27T03:50:35.614Z,9.17
2018-02-27T03:53:03.082Z,8.57
2018-02-27T03:55:30.565Z,8.70
2018-02-27T03:57:58.027Z,8.63
2018-02-27T04:00:25.501Z,8.63
2018-02-27T04:02:52.968Z,8.80
2018-02-27T04:05:20.434Z,8.23
2018-02-27T04:07:47.902Z,9.17
2018-02-27T04:10:15.373Z,8.50
2018-02-27T04:12:42.839Z,9.67
2018-02-27T04:15:11.075Z,9.50
2018-02-27T04:17:38.533Z,9.93
2018-02-27T04:20:06.002Z,8.93
2018-02-27T04:22:33.456Z,9.20
2018-02-27T04:25:00.918Z,9.47
2018-02-27T04:27:28.389Z,9.90
2018-02-27T04:29:55.854Z,9.00
2018-02-27T04:32:23.311Z,8.80
2018-02-27T04:34:51.541Z,9.80
2018-02-27T04:37:19.012Z,9.37
2018-02-27T04:39:46.473Z,8.87
2018-02-27T04:42:13.937Z,9.50
2018-02-27T04:44:41.399Z,9.70
2018-02-27T04:47:08.869Z,9.87
2018-02-27T04:49:36.318Z,9.80
2018-02-27T04:52:03.781Z,10.40
2018-02-27T04:54:32.018Z,10.57
2018-02-27T04:56:59.485Z,9.47
2018-02-27T04:59:26.954Z,8.77
2018-02-27T05:01:54.417Z,9.20
2018-02-27T05:04:21.887Z,8.70
2018-02-27T05:06:50.122Z,11.03
2018-02-27T05:09:17.591Z,9.57
2018-02-27T05:11:45.067Z,9.47
2018-02-27T05:14:13.314Z,9.47
2018-02-27T05:16:40.782Z,9.60
2018-02-27T05:19:08.250Z,8.33
2018-02-27T05:21:35.709Z,8.77
2018-02-27T05:24:03.174Z,9.23
2018-02-27T05:26:30.633Z,8.53
2018-02-27T05:28:58.858Z,9.57
2018-02-27T05:31:26.325Z,9.33
2018-02-27T05:33:53.806Z,8.60
2018-02-27T05:36:21.269Z,8.97
2018-02-27T05:38:48.725Z,9.20
2018-02-27T05:41:16.181Z,8.40
2018-02-27T05:43:43.643Z,9.30
2018-02-27T05:46:11.097Z,9.57
2018-02-27T05:48:39.331Z,9.80
2018-02-27T05:51:06.802Z,9.80
2018-02-27T05:53:34.258Z,9.40
2018-02-27T05:56:01.722Z,9.63
2018-02-27T05:58:29.234Z,9.40
2018-02-27T06:00:56.702Z,8.60
2018-02-27T06:03:24.170Z,10.77
2018-02-27T06:05:51.621Z,9.70
2018-02-27T06:08:19.078Z,8.83
2018-02-27T06:10:46.536Z,8.37
2018-02-27T06:13:13.997Z,8.73
2018-02-27T06:15:41.545Z,8.97
2018-02-27T06:18:09.006Z,10.03
2018-02-27T06:20:36.461Z,8.97
2018-02-27T06:23:03.942Z,10.17
2018-02-27T06:25:31.402Z,8.77
2018-02-27T06:27:58.866Z,9.53
2018-02-27T06:30:26.323Z,9.83
2018-02-27T06:32:53.791Z,8.60
2018-02-27T06:35:21.254Z,9.10
2018-02-27T06:37:48.710Z,9.67
2018-02-27T06:40:16.169Z,8.37
2018-02-27T06:42:44.401Z,8.70
2018-02-27T06:45:11.859Z,9.03
2018-02-27T06:47:39.339Z,9.47
2018-02-27T06:50:06.818Z,10.50
2018-02-27T06:52:35.042Z,9.77
2018-02-27T06:55:02.499Z,8.97
2018-02-27T06:57:29.970Z,10.60
2018-02-27T06:59:57.434Z,9.60
2018-02-27T07:02:24.905Z,10.83
2018-02-27T07:04:52.369Z,9.83
2018-02-27T07:07:19.836Z,9.50
2018-02-27T07:09:48.061Z,11.20
2018-02-27T07:12:15.537Z,9.03
2018-02-27T07:14:42.994Z,9.47
2018-02-27T07:17:10.469Z,10.63
2018-02-27T07:19:37.926Z,9.50
2018-02-27T07:22:05.401Z,10.13
2018-02-27T07:24:33.650Z,9.90
2018-02-27T07:27:01.127Z,10.03
2018-02-27T07:29:29.353Z,9.00
2018-02-27T07:31:56.825Z,9.50
2018-02-27T07:34:24.295Z,10.63
2018-02-27T07:36:51.771Z,11.80
2018-02-27T07:39:20.002Z,9.87
2018-02-27T07:41:47.466Z,9.87
2018-02-27T07:44:14.939Z,11.93
2018-02-27T07:46:42.405Z,10.80
2018-02-27T07:49:09.874Z,11.17
2018-02-27T07:51:38.105Z,10.30
2018-02-27T07:54:05.574Z,9.90
2018-02-27T07:56:33.037Z,11.20
2018-02-27T07:59:00.515Z,10.90
2018-02-27T08:01:28.744Z,12.03
2018-02-27T08:03:56.239Z,10.90
2018-02-27T08:06:23.697Z,10.73
2018-02-27T08:08:51.957Z,11.50
2018-02-27T08:11:19.410Z,10.67
2018-02-27T08:13:46.917Z,10.47
2018-02-27T08:16:15.152Z,10.37
2018-02-27T08:18:42.610Z,11.23
2018-02-27T08:21:10.073Z,11.50
2018-02-27T08:23:38.308Z,11.40
2018-02-27T08:26:05.775Z,11.10
2018-02-27T08:28:33.250Z,11.87
2018-02-27T08:31:00.703Z,11.57
2018-02-27T08:33:28.179Z,12.77
2018-02-27T08:35:55.643Z,11.50
2018-02-27T08:38:23.881Z,11.90
2018-02-27T08:40:51.345Z,12.00
2018-02-27T08:43:18.820Z,12.33
2018-02-27T08:45:46.273Z,12.43
2018-02-27T08:48:13.740Z,11.73
2018-02-27T08:50:41.970Z,11.77
2018-02-27T08:53:09.442Z,11.10
2018-02-27T08:55:37.670Z,12.20
2018-02-27T08:58:05.137Z,12.90
2018-02-27T09:00:32.592Z,13.87
2018-02-27T09:03:00.042Z,11.80
2018-02-27T09:05:27.521Z,11.77
2018-02-27T09:07:54.980Z,12.73
2018-02-27T09:10:22.458Z,13.07
2018-02-27T09:12:49.915Z,13.00
2018-02-27T09:15:17.393Z,12.50
2018-02-27T09:17:44.858Z,12.40
2018-02-27T09:20:13.118Z,15.23
2018-02-27T09:22:40.558Z,14.70
2018-02-27T09:25:08.021Z,12.83
2018-02-27T09:27:35.485Z,12.67
2018-02-27T09:30:02.953Z,12.70
2018-02-27T09:32:31.176Z,13.83
2018-02-27T09:34:58.681Z,13.50
2018-02-27T09:37:26.113Z,13.70
2018-02-27T09:39:53.577Z,13.53
2018-02-27T09:42:21.045Z,13.93
2018-02-27T09:44:48.511Z,11.90
2018-02-27T09:47:15.975Z,13.67
2018-02-27T09:49:44.208Z,14.10
2018-02-27T09:52:11.709Z,14.40
2018-02-27T09:54:39.958Z,13.80
2018-02-27T09:57:07.438Z,13.93
2018-02-27T09:59:35.670Z,15.00
2018-02-27T10:02:03.140Z,14.47
2018-02-27T10:04:30.614Z,14.77
2018-02-27T10:06:58.085Z,16.50
2018-02-27T10:09:26.316Z,14.60
2018-02-27T10:11:53.769Z,16.13
2018-02-27T10:14:21.237Z,16.97
2018-02-27T10:16:48.705Z,15.63
2018-02-27T10:19:16.173Z,15.30
2018-02-27T10:21:43.645Z,15.47
2018-02-27T10:24:11.888Z,16.30
2018-02-27T10:26:39.364Z,19.23
2018-02-27T10:29:06.829Z,17.70
2018-02-27T10:31:35.058Z,16.50
2018-02-27T10:34:02.543Z,15.43
2018-02-27T10:36:30.022Z,15.30
2018-02-27T10:38:58.254Z,14.50
2018-02-27T10:41:25.735Z,15.03
2018-02-27T10:43:53.200Z,15.23
2018-02-27T10:46:20.666Z,15.60
2018-02-27T10:48:48.899Z,15.10
2018-02-27T10:51:16.371Z,17.00
2018-02-27T10:53:43.837Z,15.07
2018-02-27T10:56:11.305Z,16.73
2018-02-27T10:58:38.760Z,15.37
2018-02-27T11:01:08.988Z,15.30
2018-02-27T11:03:36.409Z,15.60
2018-02-27T11:06:03.885Z,16.67
2018-02-27T11:08:31.342Z,16.00
2018-02-27T11:10:58.816Z,14.63
2018-02-27T11:13:27.048Z,14.03
2018-02-27T11:15:54.518Z,15.43
2018-02-27T11:18:21.985Z,15.83
2018-02-27T11:20:49.459Z,15.20
2018-02-27T11:23:17.684Z,15.00
2018-02-27T11:25:45.150Z,14.10
2018-02-27T11:28:12.609Z,15.40
2018-02-27T11:30:40.850Z,15.20
2018-02-27T11:33:08.317Z,14.90
2018-02-27T11:35:35.777Z,17.00
2018-02-27T11:38:03.236Z,16.93
2018-02-27T11:40:30.709Z,17.00
2018-02-27T11:42:58.173Z,15.80
2018-02-27T11:45:25.655Z,15.93
2018-02-27T11:47:53.108Z,14.13
2018-02-27T11:50:20.589Z,15.83
2018-02-27T11:52:48.809Z,14.37
2018-02-27T11:55:16.288Z,16.20
2018-02-27T11:57:43.749Z,17.00
2018-02-27T12:00:11.217Z,17.13
2018-02-27T12:02:39.437Z,16.57
2018-02-27T12:05:06.918Z,15.73
2018-02-27T12:07:35.145Z,16.20
2018-02-27T12:10:02.609Z,15.60
2018-02-27T12:12:30.085Z,18.33
2018-02-27T12:14:57.551Z,16.10
2018-02-27T12:17:25.036Z,14.90
2018-02-27T12:19:52.487Z,14.63
2018-02-27T12:22:19.965Z,15.37
2018-02-27T12:24:48.190Z,16.70
2018-02-27T12:27:15.661Z,15.47
2018-02-27T12:29:43.121Z,15.40
2018-02-27T12:32:10.589Z,16.67
2018-02-27T12:34:38.053Z,16.50
2018-02-27T12:37:05.551Z,14.90
2018-02-27T12:39:33.017Z,14.30
2018-02-27T12:42:00.489Z,16.90
2018-02-27T12:44:27.954Z,16.73
2018-02-27T12:46:55.420Z,15.40
2018-02-27T12:49:23.643Z,15.80
2018-02-27T12:51:51.885Z,17.37
2018-02-27T12:54:19.335Z,17.47
2018-02-27T12:56:46.858Z,16.77
2018-02-27T12:59:14.311Z,16.87
2018-02-27T13:01:41.778Z,16.60
2018-02-27T13:04:09.238Z,17.13
2018-02-27T13:06:36.705Z,15.33
2018-02-27T13:09:04.172Z,14.87
2018-02-27T13:11:31.633Z,17.23
2018-02-27T13:13:59.088Z,16.73
2018-02-27T13:16:26.563Z,18.23
2018-02-27T13:18:54.049Z,16.20
2018-02-27T13:21:22.282Z,17.00
2018-02-27T13:23:49.741Z,17.83
2018-02-27T13:26:17.227Z,16.57
2018-02-27T13:28:45.459Z,16.33
2018-02-27T13:31:12.921Z,18.93
2018-02-27T13:33:40.381Z,17.70
2018-02-27T13:36:07.846Z,17.57
2018-02-27T13:38:35.305Z,19.07
2018-02-27T13:41:02.762Z,19.00
2018-02-27T13:43:30.241Z,18.90
2018-02-27T13:45:58.461Z,18.63
2018-02-27T13:48:25.932Z,18.93
2018-02-27T13:50:53.398Z,16.93
2018-02-27T13:53:20.862Z,18.10
2018-02-27T13:55:48.326Z,16.67
2018-02-27T13:58:15.817Z,18.70
2018-02-27T14:00:43.277Z,18.33
2018-02-27T14:03:10.744Z,17.20
2018-02-27T14:05:38.221Z,16.70
2018-02-27T14:08:05.685Z,17.70
2018-02-27T14:10:33.181Z,18.60
2018-02-27T14:13:01.423Z,17.97
2018-02-27T14:15:28.888Z,17.80
2018-02-27T14:17:56.357Z,18.90
2018-02-27T14:20:24.590Z,17.50
2018-02-27T14:22:52.061Z,18.17
2018-02-27T14:25:19.522Z,17.80
2018-02-27T14:27:46.990Z,17.30
2018-02-27T14:30:14.453Z,16.97
2018-02-27T14:32:41.920Z,17.47
2018-02-27T14:35:10.153Z,18.10
2018-02-27T14:37:37.616Z,18.40
2018-02-27T14:40:05.077Z,19.97
2018-02-27T14:42:32.540Z,18.90
2018-02-27T14:45:00.000Z,15.17
2018-02-27T14:47:27.465Z,17.43
2018-02-27T14:49:54.937Z,18.10
2018-02-27T14:52:23.170Z,17.80
2018-02-27T14:54:50.633Z,17.87
2018-02-27T14:57:18.100Z,16.17
2018-02-27T14:59:45.560Z,16.47
2018-02-27T15:02:13.045Z,16.27
2018-02-27T15:04:41.274Z,17.60
2018-02-27T15:07:08.742Z,17.07
2018-02-27T15:09:36.200Z,17.37
2018-02-27T15:12:03.673Z,16.43
2018-02-27T15:14:31.137Z,17.50
2018-02-27T15:16:59.368Z,16.60
2018-02-27T15:19:26.915Z,17.57
2018-02-27T15:21:54.374Z,17.00
2018-02-27T15:24:21.834Z,16.50
2018-02-27T15:26:49.309Z,17.10
2018-02-27T15:29:16.846Z,16.27
2018-02-27T15:31:44.297Z,17.53
2018-02-27T15:34:11.795Z,17.43
2018-02-27T15:36:39.262Z,18.83
2018-02-27T15:39:06.734Z,15.30
2018-02-27T15:41:34.959Z,17.43
2018-02-27T15:44:02.425Z,17.23
2018-02-27T15:46:29.898Z,17.37
2018-02-27T15:48:57.370Z,18.73
2018-02-27T15:51:24.873Z,17.47
2018-02-27T15:53:52.304Z,18.90
2018-02-27T15:56:20.548Z,16.60
2018-02-27T15:58:48.018Z,17.07
2018-02-27T16:01:15.509Z,17.03
2018-02-27T16:03:42.933Z,18.80
2018-02-27T16:06:11.164Z,16.60
2018-02-27T16:08:38.643Z,16.13
2018-02-27T16:11:06.104Z,15.83
2018-02-27T16:13:33.627Z,18.67
2018-02-27T16:16:01.087Z,18.93
2018-02-27T16:18:28.553Z,17.87
2018-02-27T16:20:56.035Z,17.17
2018-02-27T16:23:23.493Z,18.43
2018-02-27T16:25:50.966Z,18.43
2018-02-27T16:28:19.206Z,15.80
2018-02-27T16:30:46.655Z,18.07
2018-02-27T16:33:14.122Z,16.83
2018-02-27T16:35:41.585Z,16.80
2018-02-27T16:38:09.054Z,17.90
2018-02-27T16:40:36.514Z,17.60
2018-02-27T16:43:03.977Z,16.70
2018-02-27T16:45:32.223Z,17.30
2018-02-27T16:47:59.682Z,18.07
2018-02-27T16:50:27.151Z,17.97
2018-02-27T16:52:54.627Z,17.77
2018-02-27T16:55:22.083Z,17.90
2018-02-27T16:57:50.309Z,16.77
2018-02-27T17:00:17.794Z,17.60
2018-02-27T17:02:45.256Z,16.40
2018-02-27T17:05:12.728Z,16.10
2018-02-27T17:07:40.967Z,16.60
2018-02-27T17:10:08.442Z,16.93
2018-02-27T17:12:35.926Z,16.73
2018-02-27T17:15:04.154Z,16.73
2018-02-27T17:17:31.621Z,17.13
2018-02-27T17:19:59.090Z,17.50
2018-02-27T17:22:26.548Z,16.73
2018-02-27T17:24:54.023Z,17.57
2018-02-27T17:27:22.335Z,17.70
2018-02-27T17:29:49.790Z,18.33
2018-02-27T17:32:17.253Z,19.40
2018-02-27T17:34:44.728Z,18.87
2018-02-27T17:37:12.209Z,18.60
2018-02-27T17:39:39.676Z,20.53
2018-02-27T17:42:07.911Z,18.40
2018-02-27T17:44:35.388Z,18.60
2018-02-27T17:47:02.833Z,19.20
2018-02-27T17:49:30.309Z,18.30
2018-02-27T17:51:57.763Z,19.53
2018-02-27T17:54:25.236Z,21.63
2018-02-27T17:56:52.685Z,20.80
2018-02-27T17:59:20.618Z,19.13
2018-02-27T18:01:48.065Z,21.67
2018-02-27T18:04:15.535Z,19.53
2018-02-27T18:06:44.887Z,18.37
2018-02-27T18:09:14.411Z,18.77
2018-02-27T18:11:44.678Z,18.87
2018-02-27T18:14:12.142Z,19.60
2018-02-27T18:16:41.407Z,18.03
2018-02-27T18:19:09.042Z,18.47
2018-02-27T18:21:38.224Z,18.70
2018-02-27T18:24:05.891Z,17.60
2018-02-27T18:26:33.349Z,18.37
2018-02-27T18:29:00.816Z,18.17
2018-02-27T18:31:30.230Z,18.10
2018-02-27T18:33:59.824Z,20.37
2018-02-27T18:36:27.281Z,18.87
2018-02-27T18:38:54.736Z,18.50
2018-02-27T18:41:22.201Z,17.37
2018-02-27T18:43:49.735Z,17.20
2018-02-27T18:46:17.162Z,16.80
2018-02-27T18:48:44.630Z,18.53
2018-02-27T18:51:12.099Z,21.10
2018-02-27T18:53:40.343Z,20.70
2018-02-27T18:56:07.808Z,19.53
2018-02-27T18:58:35.276Z,19.77
2018-02-27T19:01:02.802Z,19.97
2018-02-27T19:03:30.285Z,21.63
2018-02-27T19:05:57.762Z,20.80
2018-02-27T19:08:25.308Z,21.53
2018-02-27T19:10:52.736Z,19.23
2018-02-27T19:13:20.193Z,20.30
2018-02-27T19:15:47.661Z,20.83
2018-02-27T19:18:15.123Z,21.93
2018-02-27T19:20:42.589Z,21.27
2018-02-27T19:23:10.098Z,23.10
2018-02-27T19:25:37.569Z,21.70
2018-02-27T19:28:05.042Z,21.63
2018-02-27T19:30:32.509Z,27.33
2018-02-27T19:32:59.970Z,23.37
2018-02-27T19:35:27.450Z,23.70
2018-02-27T19:37:55.697Z,26.47
2018-02-27T19:40:23.209Z,24.00
2018-02-27T19:42:50.629Z,51.67
2018-02-27T19:45:18.869Z,33.30
2018-02-27T19:47:46.333Z,33.30
2018-02-27T19:50:13.814Z,22.77
2018-02-27T19:52:42.043Z,28.20
2018-02-27T19:55:09.592Z,26.97
2018-02-27T19:57:37.074Z,28.10
2018-02-27T20:00:04.532Z,26.70
2018-02-27T20:02:32.009Z,25.23
2018-02-27T20:04:59.485Z,27.87
2018-02-27T20:07:27.730Z,30.17
2018-02-27T20:09:55.186Z,29.30
2018-02-27T20:12:22.674Z,31.87
2018-02-27T20:14:50.913Z,33.60
2018-02-27T20:17:18.379Z,29.47
2018-02-27T20:19:45.843Z,30.73
2018-02-27T20:22:13.305Z,28.93
2018-02-27T20:24:40.930Z,26.40
2018-02-27T20:27:08.418Z,26.20
2018-02-27T20:29:35.885Z,26.10
2018-02-27T20:32:03.351Z,26.50
2018-02-27T20:34:32.394Z,25.30
2018-02-27T20:36:59.870Z,26.60
2018-02-27T20:39:27.324Z,28.23
2018-02-27T20:41:54.799Z,27.33
2018-02-27T20:44:22.259Z,26.90
2018-02-27T20:46:49.735Z,24.23
2018-02-27T20:49:17.973Z,23.40
2018-02-27T20:51:45.446Z,24.00
2018-02-27T20:54:12.926Z,24.63
2018-02-27T20:56:41.157Z,23.67
2018-02-27T20:59:08.621Z,24.60
2018-02-27T21:01:36.085Z,22.53
2018-02-27T21:04:03.552Z,21.47
2018-02-27T21:06:31.018Z,20.50
2018-02-27T21:08:59.253Z,23.30
2018-02-27T21:11:26.722Z,22.10
2018-02-27T21:13:54.185Z,21.63
2018-02-27T21:16:21.645Z,21.80
2018-02-27T21:18:49.109Z,22.10
2018-02-27T21:21:16.572Z,24.17
2018-02-27T21:23:44.801Z,22.37
2018-02-27T21:26:12.267Z,23.87
2018-02-27T21:28:39.744Z,20.17
2018-02-27T21:31:07.201Z,22.40
2018-02-27T21:33:34.672Z,21.80
2018-02-27T21:36:02.140Z,25.50
2018-02-27T21:38:30.381Z,23.20
2018-02-27T21:40:57.842Z,23.83
2018-02-27T21:43:25.312Z,20.77
2018-02-27T21:45:53.445Z,20.20
2018-02-27T21:48:20.909Z,21.03
2018-02-27T21:50:49.135Z,21.97
2018-02-27T21:53:16.601Z,22.67
2018-02-27T21:55:44.052Z,23.03
2018-02-27T21:58:11.544Z,22.60
2018-02-27T22:00:39.039Z,20.10
2018-02-27T22:03:06.506Z,21.03
2018-02-27T22:05:34.781Z,20.30
2018-02-27T22:08:02.256Z,20.20
2018-02-27T22:10:30.488Z,22.00
2018-02-27T22:12:57.949Z,19.50
2018-02-27T22:15:25.409Z,22.13
2018-02-27T22:17:54.234Z,21.03
2018-02-27T22:20:22.463Z,19.63
2018-02-27T22:22:49.978Z,22.07
2018-02-27T22:25:17.447Z,22.10
2018-02-27T22:27:44.941Z,20.63
2018-02-27T22:30:12.427Z,19.90
2018-02-27T22:32:40.707Z,21.10
2018-02-27T22:35:08.948Z,21.17
2018-02-27T22:37:36.411Z,21.33
2018-02-27T22:40:03.897Z,22.30
2018-02-27T22:42:32.130Z,24.93
2018-02-27T22:44:59.632Z,20.33
2018-02-27T22:47:27.881Z,21.97
2018-02-27T22:49:55.367Z,20.70
2018-02-27T22:52:22.834Z,23.70
2018-02-27T22:54:50.317Z,25.73
2018-02-27T22:57:17.792Z,22.53
2018-02-27T22:59:51.965Z,22.70
2018-02-27T23:02:19.795Z,23.40
2018-02-27T23:04:47.937Z,22.53
2018-02-27T23:07:15.427Z,21.60
2018-02-27T23:09:42.914Z,22.17
2018-02-27T23:12:10.385Z,21.77
2018-02-27T23:14:37.871Z,21.52
2018-02-27T23:17:05.367Z,20.20
2018-02-27T23:19:33.621Z,23.30
2018-02-27T23:22:01.107Z,23.90
2018-02-27T23:24:28.651Z,21.60
2018-02-27T23:26:57.846Z,21.10
2018-02-27T23:29:26.972Z,22.43
2018-02-27T23:31:54.621Z,23.08
2018-02-27T23:34:25.019Z,22.20
2018-02-27T23:36:52.478Z,19.63
2018-02-27T23:39:20.742Z,20.50
2018-02-27T23:41:48.278Z,22.85
2018-02-27T23:44:15.982Z,22.23
2018-02-27T23:46:44.221Z,21.73
2018-02-27T23:49:11.692Z,21.63
2018-02-27T23:51:39.208Z,20.60
2018-02-27T23:54:06.714Z,22.13
2018-02-27T23:56:34.202Z,20.37
2018-02-27T23:59:02.105Z,22.63
